Time;durP1;ratioP1;P1;durP2;ratioP2;P2;SDS_P1;SDS_P2;PMS_P1;PMS_P2;Temp;Humidity;BMP_temperature;BMP_pressure;BME280_temperature;BME280_humidity;BME280_pressure;Samples;Min_cycle;Max_cycle;Signal;HPM_P1;HPM_P2
2023/09/12 00:00:06;;;;;;;;;23.00;20.75;;;;;-143.90;94.72;74419.75;4907925;28;101780;-73
2023/09/12 00:02:33;;;;;;;;;20.25;20.00;;;;;-143.90;95.08;74413.56;4904796;28;103977;-73
2023/09/12 00:05:00;;;;;;;;;18.75;18.00;;;;;-143.90;94.72;74421.81;4901514;28;102555;-72
2023/09/12 00:07:26;;;;;;;;;18.00;17.75;;;;;-143.90;96.08;74432.16;4918348;28;104286;-73
2023/09/12 00:09:53;;;;;;;;;24.00;18.00;;;;;-143.90;96.35;74428.03;4918437;28;103527;-73
2023/09/12 00:12:24;;;;;;;;;20.25;18.00;;;;;-143.90;96.59;74432.16;4923295;28;102883;-74
2023/09/12 00:14:51;;;;;;;;;12.50;12.50;;;;;-143.90;96.34;74421.81;4926282;28;102472;-74
2023/09/12 00:17:17;;;;;;;;;14.25;13.00;;;;;-143.90;96.34;74423.88;4915577;28;104206;-74
2023/09/12 00:19:44;;;;;;;;;9.50;8.75;;;;;-143.90;95.78;74419.75;4918463;28;101876;-74
2023/09/12 00:22:11;;;;;;;;;16.75;12.75;;;;;-143.90;95.07;74417.69;4924210;28;102655;-74
2023/09/12 00:24:38;;;;;;;;;10.75;10.50;;;;;-143.90;95.11;74415.63;4931459;28;102003;-74
2023/09/12 00:27:05;;;;;;;;;7.00;7.00;;;;;-143.90;94.74;74419.75;4929717;28;104082;-74
2023/09/12 00:29:32;;;;;;;;;13.25;11.25;;;;;-143.90;96.33;74436.28;4925971;28;102302;-74
2023/09/12 00:31:59;;;;;;;;;18.75;17.00;;;;;-143.90;98.07;74438.38;4928840;28;102489;-73
2023/09/12 00:34:26;;;;;;;;;23.00;21.25;;;;;-143.90;98.13;74448.69;4923578;28;103604;-74
2023/09/12 00:36:53;;;;;;;;;31.25;26.75;;;;;-143.90;99.11;74459.03;4927747;28;108644;-74
2023/09/12 00:39:19;;;;;;;;;37.75;32.75;;;;;-143.90;98.94;74461.09;4926884;28;103647;-74
2023/09/12 00:41:46;;;;;;;;;29.25;25.50;;;;;-143.90;99.22;74454.91;4926475;28;102421;-74
2023/09/12 00:44:13;;;;;;;;;26.75;23.00;;;;;-143.90;98.50;74454.91;4930581;28;102431;-74
2023/09/12 00:46:39;;;;;;;;;16.50;16.50;;;;;-143.90;97.80;74448.69;4926444;28;104026;-74
2023/09/12 00:49:08;;;;;;;;;17.00;14.75;;;;;-143.90;96.22;74450.75;4922252;28;102379;-75
2023/09/12 00:51:36;;;;;;;;;16.00;14.25;;;;;-143.90;94.96;74448.69;4929943;28;103605;-75
2023/09/12 00:54:03;;;;;;;;;18.00;17.25;;;;;-143.90;94.40;74448.69;4929443;28;102539;-73
2023/09/12 00:56:31;;;;;;;;;16.75;15.50;;;;;-143.90;94.16;74452.84;4926290;28;105338;-73
2023/09/12 00:58:58;;;;;;;;;20.00;19.50;;;;;-143.90;94.86;74463.16;4918970;28;102313;-73
2023/09/12 01:01:25;;;;;;;;;16.00;15.75;;;;;-143.90;94.89;74465.22;4936630;28;103396;-74
2023/09/12 01:03:52;;;;;;;;;14.50;12.75;;;;;-143.90;94.76;74469.38;4929988;28;102903;-72
2023/09/12 01:06:23;;;;;;;;;14.25;11.50;;;;;-143.90;95.19;74477.63;4926582;28;104271;-72
2023/09/12 01:08:50;;;;;;;;;16.25;12.75;;;;;-143.90;95.68;74477.63;4929131;28;103216;-72
2023/09/12 01:11:17;;;;;;;;;15.00;14.75;;;;;-143.90;95.94;74477.63;4930888;28;102375;-72
2023/09/12 01:13:44;;;;;;;;;18.00;16.00;;;;;-143.90;95.92;74477.63;4932757;28;102062;-73
2023/09/12 01:16:10;;;;;;;;;10.25;9.50;;;;;-143.90;95.82;74473.50;4934787;28;104062;-73
2023/09/12 01:18:38;;;;;;;;;10.00;10.00;;;;;-143.90;96.20;74496.25;4930550;28;105967;-73
2023/09/12 01:21:21;;;;;;;;;14.50;14.25;;;;;-143.90;97.29;74494.16;4941417;28;102023;-73
2023/09/12 01:24:22;;;;;;;;;11.25;11.25;;;;;-143.90;97.95;74502.44;4926939;28;104660;-73
2023/09/12 01:26:54;;;;;;;;;19.50;17.50;;;;;-143.90;97.79;74508.63;4929498;28;109060;-73
2023/09/12 01:29:22;;;;;;;;;11.00;11.00;;;;;-143.90;97.96;74498.31;4931505;28;103292;-73
2023/09/12 01:31:52;;;;;;;;;10.25;10.00;;;;;-143.90;96.73;74502.44;4928776;28;102505;-74
2023/09/12 01:34:19;;;;;;;;;23.25;21.50;;;;;-143.90;95.01;74506.56;4941695;28;102047;-73
2023/09/12 01:36:45;;;;;;;;;22.50;20.25;;;;;-143.90;95.45;74537.56;4928519;28;103738;-74
2023/09/12 01:39:12;;;;;;;;;21.00;19.00;;;;;-143.90;96.55;74541.72;4923339;28;102402;-73
2023/09/12 01:41:43;;;;;;;;;18.00;16.00;;;;;-143.90;96.90;74541.72;4922101;28;102521;-73
2023/09/12 01:44:11;;;;;;;;;17.25;16.00;;;;;-143.90;96.65;74537.56;4927961;28;103462;-73
2023/09/12 01:46:39;;;;;;;;;15.50;15.00;;;;;-143.90;96.22;74535.50;4911591;28;104169;-73
2023/09/12 01:49:09;;;;;;;;;17.50;14.25;;;;;-143.90;96.17;74531.38;4941836;28;101875;-73
2023/09/12 01:51:36;;;;;;;;;12.25;12.25;;;;;-143.90;96.10;74535.50;4940053;28;103740;-73
2023/09/12 01:54:04;;;;;;;;;9.50;8.75;;;;;-143.90;95.91;74541.72;4930505;28;102003;-73
2023/09/12 01:56:31;;;;;;;;;12.25;11.75;;;;;-143.90;95.30;74539.66;4930648;28;104283;-72
2023/09/12 01:58:58;;;;;;;;;16.25;14.50;;;;;-143.90;94.61;74539.66;4930606;28;102467;-69
2023/09/12 02:01:27;;;;;;;;;22.00;20.50;;;;;-143.90;94.71;74531.38;4929372;28;102234;-73
2023/09/12 02:03:53;;;;;;;;;22.75;19.75;;;;;-143.90;96.31;74549.97;4932309;28;102388;-73
2023/09/12 02:06:20;;;;;;;;;22.50;20.50;;;;;-143.90;96.96;74560.31;4927730;28;104112;-73
2023/09/12 02:08:47;;;;;;;;;16.00;14.00;;;;;-143.90;97.14;74560.31;4923077;28;102790;-73
2023/09/12 02:11:13;;;;;;;;;14.75;14.25;;;;;-143.90;97.34;74552.03;4927767;28;102567;-73
2023/09/12 02:13:40;;;;;;;;;15.75;15.00;;;;;-143.90;96.85;74554.13;4931510;28;102800;-73
2023/09/12 02:16:07;;;;;;;;;17.00;17.00;;;;;-143.90;96.29;74549.97;4930626;28;103721;-73
2023/09/12 02:18:34;;;;;;;;;14.75;13.00;;;;;-143.90;97.48;74549.97;4929349;28;102300;-73
2023/09/12 02:21:01;;;;;;;;;11.25;10.75;;;;;-143.90;96.38;74543.78;4928155;28;102064;-72
2023/09/12 02:23:27;;;;;;;;;10.25;9.75;;;;;-143.90;94.96;74560.31;4932734;28;102094;-72
2023/09/12 02:25:55;;;;;;;;;19.00;13.25;;;;;-143.90;94.77;74570.66;4930508;28;108817;-72
2023/09/12 02:28:22;;;;;;;;;13.25;11.50;;;;;-143.90;95.65;74566.53;4920080;28;102694;-72
2023/09/12 02:30:48;;;;;;;;;14.00;13.00;;;;;-143.90;95.32;74568.59;4925770;28;102309;-73
2023/09/12 02:33:15;;;;;;;;;8.25;8.25;;;;;-143.90;96.34;74568.59;4925118;28;102502;-73
2023/09/12 02:35:42;;;;;;;;;13.50;9.50;;;;;-143.90;95.60;74574.78;4930518;28;103569;-73
2023/09/12 02:38:09;;;;;;;;;9.50;9.00;;;;;-143.90;95.45;74570.66;4944068;28;102071;-74
2023/09/12 02:40:35;;;;;;;;;10.50;8.75;;;;;-143.90;95.51;74576.84;4930117;28;103301;-72
2023/09/12 02:43:02;;;;;;;;;10.50;7.75;;;;;-143.90;95.13;74576.84;4931690;28;102469;-73
2023/09/12 02:45:29;;;;;;;;;10.25;10.25;;;;;-143.90;94.79;74574.78;4934159;28;105387;-73
2023/09/12 02:47:55;;;;;;;;;10.50;10.50;;;;;-143.90;94.64;74578.91;4933692;28;102248;-74
2023/09/12 02:50:22;;;;;;;;;7.75;7.75;;;;;-143.90;94.88;74585.13;4932568;28;103326;-74
2023/09/12 02:52:49;;;;;;;;;8.00;7.00;;;;;-143.90;95.15;74589.25;4933062;28;105284;-74
2023/09/12 02:55:15;;;;;;;;;10.00;9.00;;;;;-143.90;95.00;74589.25;4920188;28;104425;-74
2023/09/12 02:57:42;;;;;;;;;7.75;7.00;;;;;-143.90;95.16;74581.00;4926041;28;102185;-74
2023/09/12 03:00:11;;;;;;;;;6.50;6.50;;;;;-143.90;95.98;74581.00;4926085;28;102532;-74
2023/09/12 03:02:38;;;;;;;;;13.00;13.00;;;;;-143.90;97.17;74593.38;4930632;28;102249;-74
2023/09/12 03:05:05;;;;;;;;;11.50;11.00;;;;;-143.90;97.13;74591.31;4941558;28;103923;-74
2023/09/12 03:07:31;;;;;;;;;12.75;11.25;;;;;-143.90;97.59;74587.19;4932510;28;102018;-74
2023/09/12 03:09:58;;;;;;;;;7.50;7.00;;;;;-143.90;97.55;74597.53;4935621;28;102021;-74
2023/09/12 03:12:25;;;;;;;;;11.25;11.00;;;;;-143.90;97.96;74595.47;4928762;28;102076;-72
2023/09/12 03:14:51;;;;;;;;;13.00;11.50;;;;;-143.90;97.35;74585.13;4931382;28;104059;-73
2023/09/12 03:17:18;;;;;;;;;9.00;8.50;;;;;-143.90;97.25;74595.47;4932105;28;102557;-75
2023/09/12 03:19:44;;;;;;;;;12.25;11.75;;;;;-143.90;97.57;74605.78;4936699;28;102296;-74
2023/09/12 03:22:12;;;;;;;;;14.25;12.75;;;;;-143.90;97.27;74605.78;4919200;28;102058;-74
2023/09/12 03:24:38;;;;;;;;;12.75;12.50;;;;;-143.90;97.31;74601.66;4926300;28;104254;-74
2023/09/12 03:27:05;;;;;;;;;8.50;6.50;;;;;-143.90;97.02;74601.66;4922552;28;102798;-74
2023/09/12 03:29:31;;;;;;;;;10.00;9.50;;;;;-143.90;95.65;74601.66;4928535;28;101911;-74
2023/09/12 03:31:58;;;;;;;;;13.25;13.00;;;;;-143.90;94.53;74609.94;4933651;28;102478;-74
2023/09/12 03:34:25;;;;;;;;;12.50;12.00;;;;;-143.90;94.21;74616.13;4931274;28;109600;-74
2023/09/12 03:36:52;;;;;;;;;13.25;12.50;;;;;-143.90;94.09;74620.25;4927858;28;102074;-74
2023/09/12 03:39:18;;;;;;;;;12.25;8.50;;;;;-143.90;94.18;74622.34;4926620;28;103489;-74
2023/09/12 03:41:45;;;;;;;;;26.00;23.50;;;;;-143.90;95.99;74643.00;4922283;28;103034;-73
2023/09/12 03:44:11;;;;;;;;;20.25;17.25;;;;;-143.90;96.59;74643.00;4923707;28;104370;-74
2023/09/12 03:46:38;;;;;;;;;16.50;14.25;;;;;-143.90;96.70;74638.88;4929544;28;102088;-73
2023/09/12 03:49:05;;;;;;;;;12.00;11.00;;;;;-143.90;96.68;74636.81;4918430;28;102409;-74
2023/09/12 03:51:34;;;;;;;;;14.00;13.25;;;;;-143.90;96.96;74632.66;4924435;28;102155;-73
2023/09/12 03:54:02;;;;;;;;;10.00;8.75;;;;;-143.90;96.57;74638.88;4933168;28;103992;-74
2023/09/12 03:56:29;;;;;;;;;13.00;10.50;;;;;-143.90;96.90;74643.00;4911656;28;103922;-73
2023/09/12 03:58:57;;;;;;;;;8.00;7.50;;;;;-143.90;97.39;74645.06;4927619;28;102337;-72
2023/09/12 04:01:24;;;;;;;;;11.75;11.00;;;;;-143.90;97.07;74634.72;4926550;28;102310;-73
2023/09/12 04:03:51;;;;;;;;;9.75;9.50;;;;;-143.90;96.80;74638.88;4928446;28;105952;-73
2023/09/12 04:06:18;;;;;;;;;11.00;10.25;;;;;-143.90;95.92;74638.88;4911404;28;102546;-73
2023/09/12 04:08:44;;;;;;;;;12.25;10.25;;;;;-143.90;95.82;74634.72;4919750;28;102369;-73
2023/09/12 04:11:11;;;;;;;;;12.75;10.75;;;;;-143.90;95.41;74636.81;4925744;28;102411;-73
2023/09/12 04:13:38;;;;;;;;;9.25;9.25;;;;;-143.90;95.04;74640.94;4900436;28;103770;-74
2023/09/12 04:16:04;;;;;;;;;11.00;10.00;;;;;-143.90;95.30;74640.94;4910984;28;103900;-76
2023/09/12 04:18:31;;;;;;;;;10.75;10.00;;;;;-143.90;94.85;74651.28;4922378;28;101869;-73
2023/09/12 04:20:58;;;;;;;;;8.00;7.00;;;;;-143.90;93.67;74651.28;4930208;28;102510;-73
2023/09/12 04:23:25;;;;;;;;;10.25;10.25;;;;;-143.90;93.20;74651.28;4940430;28;108162;-73
2023/09/12 04:25:52;;;;;;;;;7.25;6.00;;;;;-143.90;92.99;74651.28;4926420;28;102953;-73
2023/09/12 04:28:18;;;;;;;;;6.00;5.75;;;;;-143.90;92.79;74663.66;4911895;28;102249;-73
2023/09/12 04:30:45;;;;;;;;;9.50;9.50;;;;;-143.90;92.80;74667.81;4929576;28;102476;-73
2023/09/12 04:33:13;;;;;;;;;13.25;13.25;;;;;-143.90;95.24;74674.00;4908449;28;104158;-73
2023/09/12 04:35:39;;;;;;;;;18.75;18.00;;;;;-143.90;97.59;74694.69;4919380;28;102102;-73
2023/09/12 04:38:06;;;;;;;;;26.25;21.00;;;;;-143.90;98.22;74700.88;4921727;28;103581;-76
2023/09/12 04:40:33;;;;;;;;;22.25;19.50;;;;;-143.90;99.37;74705.00;4922113;28;102333;-73
2023/09/12 04:42:59;;;;;;;;;24.50;21.75;;;;;-143.90;99.86;74709.16;4917547;28;104816;-72
2023/09/12 04:45:26;;;;;;;;;23.00;20.50;;;;;-143.90;99.74;74696.75;4920032;28;103897;-73
2023/09/12 04:47:53;;;;;;;;;15.50;14.25;;;;;-143.90;99.53;74690.53;4911958;28;102002;-73
2023/09/12 04:50:19;;;;;;;;;14.00;13.00;;;;;-143.90;99.46;74692.63;4917763;28;103594;-73
2023/09/12 04:52:46;;;;;;;;;15.75;14.00;;;;;-143.90;100.00;74696.75;4917005;28;104323;-73
2023/09/12 04:55:13;;;;;;;;;14.25;13.25;;;;;-143.90;99.91;74676.06;4921555;28;103885;-73
2023/09/12 04:57:39;;;;;;;;;12.75;12.75;;;;;-143.90;99.33;74667.81;4927573;28;103720;-73
2023/09/12 05:00:09;;;;;;;;;15.50;14.00;;;;;-143.90;99.10;74661.59;4925977;28;102099;-73
2023/09/12 05:02:37;;;;;;;;;13.00;12.00;;;;;-143.90;98.81;74657.47;4901374;28;104025;-73
2023/09/12 05:05:04;;;;;;;;;13.25;12.00;;;;;-143.90;98.27;74651.28;4916930;28;102275;-73
2023/09/12 05:07:31;;;;;;;;;17.00;16.25;;;;;-143.90;97.34;74647.13;4913485;28;102352;-73
2023/09/12 05:09:58;;;;;;;;;16.25;14.50;;;;;-143.90;97.62;74643.00;4917409;28;102043;-74
2023/09/12 05:12:24;;;;;;;;;24.50;23.25;;;;;-143.90;97.24;74640.94;4923924;28;109046;-74
2023/09/12 05:14:51;;;;;;;;;20.75;19.75;;;;;-143.90;97.71;74634.72;4916987;28;101958;-74
2023/09/12 05:17:18;;;;;;;;;17.00;16.00;;;;;-143.90;97.88;74620.25;4920435;28;102407;-75
2023/09/12 05:19:44;;;;;;;;;15.00;14.50;;;;;-143.90;98.04;74620.25;4903683;28;101988;-74
2023/09/12 05:22:11;;;;;;;;;12.75;11.75;;;;;-143.90;98.02;74609.94;4932073;28;104466;-74
2023/09/12 05:24:38;;;;;;;;;14.25;13.50;;;;;-143.90;98.69;74609.94;4925127;28;102168;-74
2023/09/12 05:27:05;;;;;;;;;16.75;16.00;;;;;-143.90;99.16;74589.25;4927290;28;105056;-73
2023/09/12 05:29:32;;;;;;;;;13.50;12.25;;;;;-143.90;98.69;74576.84;4930038;28;102022;-73
2023/09/12 05:31:58;;;;;;;;;15.25;14.00;;;;;-143.90;98.20;74560.31;4932481;28;104107;-74
2023/09/12 05:34:25;;;;;;;;;20.75;19.00;;;;;-143.90;98.90;74552.03;4927265;28;102425;-74
2023/09/12 05:36:52;;;;;;;;;18.25;16.75;;;;;-143.90;98.39;74535.50;4929530;28;102129;-75
2023/09/12 05:39:19;;;;;;;;;19.75;19.25;;;;;-143.90;99.10;74535.50;4927574;28;102867;-75
2023/09/12 05:41:45;;;;;;;;;26.00;24.00;;;;;-143.90;99.64;74523.09;4908350;28;104181;-75
2023/09/12 05:44:17;;;;;;;;;21.00;20.50;;;;;-143.90;99.76;74506.56;4931418;28;102459;-74
2023/09/12 05:46:47;;;;;;;;;21.50;20.75;;;;;-143.90;100.00;74498.31;4909158;28;102402;-75
2023/09/12 05:49:15;;;;;;;;;23.75;21.50;;;;;-143.90;100.00;74473.50;4906727;28;102337;-75
2023/09/12 05:51:42;;;;;;;;;23.00;21.50;;;;;-143.90;99.78;74459.03;4917922;28;103549;-75
2023/09/12 05:54:10;;;;;;;;;17.50;16.50;;;;;-143.90;99.20;74440.44;4926734;28;102014;-75
2023/09/12 05:56:36;;;;;;;;;17.25;15.75;;;;;-143.90;99.42;74413.56;4928659;28;102111;-75
2023/09/12 05:59:03;;;;;;;;;19.50;19.50;;;;;-143.90;99.07;74405.28;4917374;28;102503;-75
2023/09/12 06:01:30;;;;;;;;;18.50;17.75;;;;;-143.90;98.50;74386.69;4932389;28;104141;-75
2023/09/12 06:03:56;;;;;;;;;18.25;15.50;;;;;-143.90;98.51;74374.28;4935981;28;102337;-75
2023/09/12 06:06:23;;;;;;;;;24.50;22.50;;;;;-143.90;98.86;74366.00;4932563;28;101882;-75
2023/09/12 06:08:50;;;;;;;;;28.25;26.75;;;;;-143.90;98.89;74359.81;4911419;28;102893;-75
2023/09/12 06:11:16;;;;;;;;;25.25;23.50;;;;;-143.90;98.81;74341.22;4923664;28;103525;-75
2023/09/12 06:13:43;;;;;;;;;30.25;27.25;;;;;-143.90;98.58;74332.94;4928668;28;102260;-74
2023/09/12 06:16:10;;;;;;;;;32.00;30.75;;;;;-143.90;98.72;74312.28;4915044;28;102403;-73
2023/09/12 06:18:36;;;;;;;;;25.25;23.25;;;;;-143.90;98.37;74287.47;4931604;28;102087;-74
2023/09/12 06:21:06;;;;;;;;;24.50;23.75;;;;;-143.90;97.94;74266.81;4929625;28;103540;-74
2023/09/12 06:23:32;;;;;;;;;24.25;22.50;;;;;-143.90;97.93;74223.41;4914395;28;102391;-74
2023/09/12 06:25:59;;;;;;;;;27.25;25.25;;;;;-143.90;96.53;74192.41;4914132;28;101949;-75
2023/09/12 06:28:27;;;;;;;;;30.25;28.25;;;;;-143.90;96.13;74155.19;4902299;28;102328;-75
2023/09/12 06:30:54;;;;;;;;;21.00;19.75;;;;;-143.90;95.44;74115.91;4916586;28;103965;-74
2023/09/12 06:33:21;;;;;;;;;18.50;17.25;;;;;-143.90;93.81;74082.84;4914721;28;102392;-74
2023/09/12 06:35:49;;;;;;;;;20.75;18.75;;;;;-143.90;93.00;74045.66;4893956;28;103120;-74
2023/09/12 06:38:16;;;;;;;;;20.00;19.75;;;;;-143.90;91.19;74002.25;4914415;28;102446;-74
2023/09/12 06:40:43;;;;;;;;;13.00;11.75;;;;;-143.90;89.45;73965.03;4900840;28;104095;-75
2023/09/12 06:43:10;;;;;;;;;16.00;13.67;;;;;-143.90;86.76;73936.09;4911412;28;106433;-73
2023/09/12 06:45:37;;;;;;;;;24.75;21.00;;;;;-143.90;85.24;73907.16;4897639;28;102127;-75
2023/09/12 06:48:04;;;;;;;;;21.00;18.75;;;;;-143.90;84.82;73888.56;4891570;28;102879;-75
2023/09/12 06:50:31;;;;;;;;;16.67;16.33;;;;;-143.90;84.23;73865.84;4909500;28;104010;-75
2023/09/12 06:53:00;;;;;;;;;20.00;18.00;;;;;-143.90;82.67;73851.38;4912973;28;103583;-75
2023/09/12 06:55:28;;;;;;;;;22.50;20.00;;;;;-143.90;83.08;73836.91;4916687;28;101907;-74
2023/09/12 06:57:54;;;;;;;;;16.67;15.67;;;;;-143.90;82.08;73830.69;4913373;28;102223;-74
2023/09/12 07:00:21;;;;;;;;;14.67;14.33;;;;;-143.90;81.68;73820.38;4888511;28;104208;-74
2023/09/12 07:02:48;;;;;;;;;14.33;14.00;;;;;-143.90;80.51;73807.97;4909797;28;102185;-75
2023/09/12 07:05:15;;;;;;;;;13.67;13.33;;;;;-143.90;80.61;73785.25;4895504;28;105475;-74
2023/09/12 07:07:41;;;;;;;;;12.33;11.33;;;;;-143.90;80.23;73779.03;4915724;28;102598;-74
2023/09/12 07:10:08;;;;;;;;;16.00;16.00;;;;;-143.90;80.81;73758.38;4904085;28;104149;-74
2023/09/12 07:12:49;;;;;;;;;16.33;15.33;;;;;-143.90;80.33;73741.84;4907737;28;101939;-75
2023/09/12 07:15:16;;;;;;;;;13.00;11.00;;;;;-143.90;79.70;73741.84;4911013;28;102023;-74
2023/09/12 07:17:43;;;;;;;;;16.33;16.00;;;;;-143.90;80.55;73733.56;4895303;28;102079;-73
2023/09/12 07:20:11;;;;;;;;;14.67;13.00;;;;;-143.90;79.51;73712.91;4911113;28;104053;-74
2023/09/12 07:22:40;;;;;;;;;16.00;12.33;;;;;-143.90;79.63;73696.38;4927738;28;103250;-74
2023/09/12 07:25:07;;;;;;;;;17.00;14.67;;;;;-143.90;79.23;73679.84;4921889;28;102322;-74
2023/09/12 07:27:34;;;;;;;;;15.00;15.00;;;;;-143.90;78.47;73667.44;4929584;28;102193;-73
2023/09/12 07:30:00;;;;;;;;;15.00;14.00;;;;;-143.90;78.67;73655.03;4925477;28;104115;-74
2023/09/12 07:32:27;;;;;;;;;14.33;13.00;;;;;-143.90;77.04;73650.91;4931874;28;102262;-73
2023/09/12 07:34:54;;;;;;;;;13.33;12.33;;;;;-143.90;77.36;73648.84;4910284;28;101777;-74
2023/09/12 07:37:21;;;;;;;;;9.00;8.67;;;;;-143.90;76.38;73642.63;4907383;28;102599;-74
2023/09/12 07:39:47;;;;;;;;;17.00;15.67;;;;;-143.90;77.01;73630.25;4919383;28;104271;-74
2023/09/12 07:42:14;;;;;;;;;18.33;16.33;;;;;-143.90;75.51;73617.84;4921793;28;102043;-75
2023/09/12 07:44:41;;;;;;;;;14.00;13.00;;;;;-143.90;75.05;73609.56;4924206;28;101910;-75
2023/09/12 07:47:08;;;;;;;;;9.00;9.00;;;;;-143.90;72.96;73588.91;4924611;28;102172;-74
2023/09/12 07:49:34;;;;;;;;;11.00;10.33;;;;;-143.90;73.02;73572.38;4909615;28;103195;-74
2023/09/12 07:52:01;;;;;;;;;10.33;10.33;;;;;-143.90;73.39;73555.84;4925113;28;102268;-75
2023/09/12 07:54:30;;;;;;;;;13.00;12.00;;;;;-143.90;73.26;73531.03;4931051;28;102562;-74
2023/09/12 07:56:57;;;;;;;;;23.33;23.00;;;;;-143.90;70.75;73578.56;4919833;28;102296;-74
2023/09/12 07:59:24;;;;;;;;;16.00;15.00;;;;;-143.90;71.26;73551.72;4916447;28;103288;-75
2023/09/12 08:01:51;;;;;;;;;22.67;19.67;;;;;-143.90;69.92;73535.19;4923288;28;102708;-75
2023/09/12 08:04:18;;;;;;;;;14.00;13.67;;;;;-143.90;70.90;73512.44;4925949;28;102237;-75
2023/09/12 08:06:45;;;;;;;;;16.33;15.33;;;;;-143.90;70.56;73485.56;4914724;28;102096;-74
2023/09/12 08:09:24;;;;;;;;;12.33;11.00;;;;;-143.90;68.98;73477.31;4925397;28;104152;-72
2023/09/12 08:11:50;;;;;;;;;12.00;11.00;;;;;-143.90;67.87;73464.91;4917800;28;102410;-74
2023/09/12 08:14:20;;;;;;;;;13.00;13.00;;;;;-143.90;68.87;73452.50;4912361;28;102505;-74
2023/09/12 08:16:47;;;;;;;;;11.00;11.00;;;;;-143.90;68.75;73440.13;4912478;28;102152;-74
2023/09/12 08:19:13;;;;;;;;;14.33;13.67;;;;;-143.90;66.64;73435.97;4921806;28;104064;-74
2023/09/12 08:21:45;;;;;;;;;15.33;15.33;;;;;-143.90;67.24;73427.72;4921003;28;102853;-74
2023/09/12 08:24:12;;;;;;;;;14.67;13.67;;;;;-143.90;66.91;73419.44;4907112;28;102253;-74
2023/09/12 08:26:39;;;;;;;;;13.00;13.00;;;;;-143.90;64.40;73413.25;4911138;28;102074;-74
2023/09/12 08:29:06;;;;;;;;;13.00;13.00;;;;;-143.90;64.92;73417.38;4894503;28;103261;-74
2023/09/12 08:31:33;;;;;;;;;14.00;12.33;;;;;-143.90;66.97;73407.06;4907427;28;102105;-74
2023/09/12 08:33:59;;;;;;;;;15.00;13.00;;;;;-143.90;64.28;73384.31;4914650;28;102318;-73
2023/09/12 08:36:26;;;;;;;;;14.67;14.67;;;;;-143.90;64.04;73392.59;4915480;28;102351;-73
2023/09/12 08:38:53;;;;;;;;;13.33;13.33;;;;;-143.90;62.91;73367.78;4892815;28;104246;-73
2023/09/12 08:41:20;;;;;;;;;12.00;11.00;;;;;-143.90;64.31;73363.66;4901071;28;101904;-73
2023/09/12 08:43:48;;;;;;;;;9.33;9.00;;;;;-143.90;63.05;73340.94;4912928;28;102457;-74
2023/09/12 08:46:17;;;;;;;;;13.67;13.00;;;;;-143.90;62.64;73334.72;4895449;28;102524;-74
2023/09/12 08:48:46;;;;;;;;;13.00;13.00;;;;;-143.90;63.39;73324.41;4901457;28;104312;-73
2023/09/12 08:51:12;;;;;;;;;9.67;9.67;;;;;-143.90;64.62;73305.78;4916397;28;102044;-74
2023/09/12 08:53:39;;;;;;;;;8.33;8.33;;;;;-143.90;63.49;73287.19;4894321;28;102325;-74
2023/09/12 08:56:08;;;;;;;;;9.67;9.33;;;;;-143.90;61.58;73283.06;4916498;28;102969;-73
2023/09/12 08:58:37;;;;;;;;;9.00;8.00;;;;;-143.90;59.48;73272.72;4913203;28;105663;-73
2023/09/12 09:01:07;;;;;;;;;13.00;12.00;;;;;-143.90;58.18;73266.53;4915530;28;102841;-73
2023/09/12 09:03:35;;;;;;;;;12.00;10.00;;;;;-143.90;57.87;73274.81;4913630;28;102410;-74
2023/09/12 09:06:02;;;;;;;;;11.67;11.67;;;;;-143.90;58.38;73262.41;4916511;28;102371;-73
2023/09/12 09:08:31;;;;;;;;;10.67;10.67;;;;;-143.90;56.08;73250.00;4908387;28;105752;-73
2023/09/12 09:10:59;;;;;;;;;12.67;12.00;;;;;-143.90;56.88;73250.00;4900154;28;102107;-73
2023/09/12 09:13:26;;;;;;;;;11.00;9.33;;;;;-143.90;57.75;73233.47;4893140;28;102539;-74
2023/09/12 09:16:14;;;;;;;;;10.00;10.00;;;;;-143.90;56.35;73229.34;4888242;28;102568;-74
2023/09/12 09:18:59;;;;;;;;;7.00;7.00;;;;;-143.90;58.98;73210.75;4909749;28;108733;-74
2023/09/12 09:21:31;;;;;;;;;11.00;9.67;;;;;-143.90;58.10;73206.59;4921480;28;101915;-74
2023/09/12 09:24:00;;;;;;;;;10.67;10.33;;;;;-143.90;56.63;73200.41;4928378;28;102288;-73
2023/09/12 09:26:50;;;;;;;;;9.67;9.67;;;;;-143.90;55.50;73192.16;4928780;28;102144;-75
2023/09/12 09:29:21;;;;;;;;;10.00;10.00;;;;;-143.90;56.46;73185.94;4932752;28;108373;-73
2023/09/12 09:31:50;;;;;;;;;9.00;9.00;;;;;-143.90;57.40;73173.53;4933893;28;101954;-74
2023/09/12 09:34:19;;;;;;;;;9.33;9.33;;;;;-143.90;54.07;73152.88;4934781;28;102041;-74
2023/09/12 09:36:51;;;;;;;;;8.00;8.00;;;;;-143.90;54.63;73140.47;4933290;28;102483;-74
2023/09/12 09:39:23;;;;;;;;;10.67;10.67;;;;;-143.90;52.82;73132.22;4934156;28;104122;-74
2023/09/12 09:41:51;;;;;;;;;14.67;13.67;;;;;-143.90;52.04;73134.28;4927885;28;101861;-73
2023/09/12 09:44:20;;;;;;;;;11.67;10.00;;;;;-143.90;51.71;73130.16;4930542;28;102015;-73
2023/09/12 09:46:52;;;;;;;;;12.67;12.33;;;;;-143.90;52.58;73121.88;4932158;28;102084;-74
2023/09/12 09:49:20;;;;;;;;;10.33;9.33;;;;;-143.90;55.06;73103.28;4926437;28;104679;-73
2023/09/12 09:51:47;;;;;;;;;10.00;9.00;;;;;-143.90;53.66;73084.69;4929979;28;102558;-73
2023/09/12 09:54:15;;;;;;;;;4.33;4.00;;;;;-143.90;52.53;73072.28;4935777;28;102239;-74
2023/09/12 09:56:46;;;;;;;;;9.67;9.67;;;;;-143.90;48.81;73070.22;4932388;28;102581;-74
2023/09/12 09:59:23;;;;;;;;;10.33;9.33;;;;;-143.90;52.13;73064.03;4933378;28;104272;-73
2023/09/12 10:01:54;;;;;;;;;9.00;9.00;;;;;-143.90;51.77;73066.09;4931753;28;101888;-74
2023/09/12 10:04:22;;;;;;;;;14.33;14.00;;;;;-143.90;49.67;73068.16;4933096;28;102322;-73
2023/09/12 10:06:49;;;;;;;;;13.00;12.33;;;;;-143.90;52.75;73057.84;4936660;28;102151;-73
2023/09/12 10:09:18;;;;;;;;;11.00;11.00;;;;;-143.90;52.61;73045.44;4936967;28;104049;-73
2023/09/12 10:11:48;;;;;;;;;9.33;8.67;;;;;-143.90;52.23;73035.09;4931979;28;102208;-73
2023/09/12 10:14:19;;;;;;;;;9.33;9.33;;;;;-143.90;51.84;73024.78;4925379;28;103391;-73
2023/09/12 10:16:48;;;;;;;;;22.00;22.00;;;;;-143.90;49.42;73043.38;4937717;28;101999;-72
2023/09/12 10:19:28;;;;;;;;;10.00;10.00;;;;;-143.90;51.65;73043.38;4932229;28;104164;-74
2023/09/12 10:22:06;;;;;;;;;17.67;16.67;;;;;-143.90;51.61;73055.75;4920417;28;102205;-73
2023/09/12 10:24:35;;;;;;;;;15.33;14.00;;;;;-143.90;52.91;73049.56;4909052;28;102277;-74
2023/09/12 10:27:04;;;;;;;;;16.33;14.33;;;;;-143.90;50.61;73039.22;4912142;28;104072;-72
2023/09/12 10:29:31;;;;;;;;;16.67;15.00;;;;;-143.90;48.63;73045.44;4908698;28;108790;-72
2023/09/12 10:31:59;;;;;;;;;23.67;22.00;;;;;-143.90;49.18;73090.91;4916665;28;102157;-75
2023/09/12 10:34:29;;;;;;;;;17.00;16.33;;;;;-143.90;51.83;73059.91;4913877;28;102237;-73
2023/09/12 10:36:58;;;;;;;;;14.00;14.00;;;;;-143.90;52.85;73043.38;4912777;28;102573;-73
2023/09/12 10:39:28;;;;;;;;;11.67;11.33;;;;;-143.90;53.63;73028.91;4912134;28;103103;-73
2023/09/12 10:41:58;;;;;;;;;14.33;14.00;;;;;-143.90;50.09;73026.84;4890874;28;102120;-73
2023/09/12 10:44:26;;;;;;;;;13.67;13.67;;;;;-143.90;51.41;73022.69;4899437;28;101966;-74
2023/09/12 10:46:54;;;;;;;;;11.00;11.00;;;;;-143.90;52.33;73010.31;4905682;28;102337;-73
2023/09/12 10:49:21;;;;;;;;;3.33;3.33;;;;;-143.90;54.05;72993.78;4893612;28;105254;-74
2023/09/12 10:51:49;;;;;;;;;13.67;12.00;;;;;-143.90;53.10;72981.38;4913438;28;102011;-74
2023/09/12 10:54:24;;;;;;;;;14.33;13.67;;;;;-143.90;53.44;72968.97;4897197;28;102580;-73
2023/09/12 10:57:04;;;;;;;;;11.00;11.00;;;;;-143.90;52.50;72964.84;4908048;28;102481;-73
2023/09/12 10:59:36;;;;;;;;;15.67;14.00;;;;;-143.90;50.73;72960.72;4919541;28;108720;-73